createdAt,value
2018-11-06T00:01:47.690Z,57.80
2018-11-06T00:04:16.737Z,57.80
2018-11-06T00:06:45.741Z,57.80
2018-11-06T00:09:14.502Z,57.80
2018-11-06T00:11:43.232Z,57.70
2018-11-06T00:14:12.152Z,57.70
2018-11-06T00:16:40.824Z,57.70
2018-11-06T00:19:09.610Z,57.80
2018-11-06T00:21:38.315Z,57.70
2018-11-06T00:24:07.148Z,57.80
2018-11-06T00:26:35.933Z,57.70
2018-11-06T00:29:04.730Z,57.60
2018-11-06T00:31:33.447Z,57.70
2018-11-06T00:34:02.267Z,57.80
2018-11-06T00:36:31.321Z,57.80
2018-11-06T00:39:00.199Z,57.80
2018-11-06T00:41:29.018Z,57.80
2018-11-06T00:43:57.718Z,57.80
2018-11-06T00:46:26.523Z,57.80
2018-11-06T00:48:55.177Z,57.80
2018-11-06T00:51:24.102Z,57.80
2018-11-06T00:53:52.769Z,57.80
2018-11-06T00:56:21.653Z,57.80
2018-11-06T00:58:50.455Z,57.80
2018-11-06T01:01:19.217Z,57.80
2018-11-06T01:03:50.330Z,57.80
2018-11-06T01:06:19.056Z,57.80
2018-11-06T01:08:48.140Z,57.80
2018-11-06T01:11:16.922Z,57.80
2018-11-06T01:13:45.595Z,57.80
2018-11-06T01:16:14.234Z,57.80
2018-11-06T01:18:43.019Z,57.80
2018-11-06T01:21:11.739Z,57.80
2018-11-06T01:23:40.410Z,57.80
2018-11-06T01:26:08.967Z,57.80
2018-11-06T01:28:37.861Z,57.80
2018-11-06T01:31:06.611Z,57.80
2018-11-06T01:33:35.327Z,57.80
2018-11-06T01:36:03.981Z,57.80
2018-11-06T01:38:32.858Z,57.80
2018-11-06T01:41:01.795Z,57.70
2018-11-06T01:43:30.478Z,57.80
2018-11-06T01:45:59.166Z,57.80
2018-11-06T01:48:28.022Z,57.80
2018-11-06T01:50:56.670Z,57.80
2018-11-06T01:53:25.339Z,57.80
2018-11-06T01:55:54.138Z,57.80
2018-11-06T01:58:22.926Z,57.80
2018-11-06T02:00:51.616Z,57.80
2018-11-06T02:03:20.288Z,57.80
2018-11-06T02:05:49.066Z,57.70
2018-11-06T02:08:17.850Z,57.80
2018-11-06T02:10:46.546Z,57.80
2018-11-06T02:13:15.171Z,57.70
2018-11-06T02:15:44.040Z,57.80
2018-11-06T02:18:12.727Z,57.70
2018-11-06T02:20:41.391Z,57.70
2018-11-06T02:23:10.005Z,57.70
2018-11-06T02:25:38.598Z,57.80
2018-11-06T02:28:07.463Z,57.70
2018-11-06T02:30:36.378Z,57.80
2018-11-06T02:33:05.276Z,57.70
2018-11-06T02:35:34.057Z,57.80
2018-11-06T02:38:02.720Z,57.70
2018-11-06T02:40:31.809Z,57.80
2018-11-06T02:43:00.803Z,57.70
2018-11-06T02:45:29.391Z,57.70
2018-11-06T02:47:57.949Z,57.70
2018-11-06T02:50:26.678Z,57.70
2018-11-06T02:52:55.604Z,57.70
2018-11-06T02:55:24.357Z,57.70
2018-11-06T02:57:52.983Z,57.70
2018-11-06T03:00:21.843Z,57.70
2018-11-06T03:02:50.412Z,57.70
2018-11-06T03:05:19.204Z,57.70
2018-11-06T03:07:48.284Z,57.70
2018-11-06T03:10:17.147Z,57.70
2018-11-06T03:12:45.940Z,57.70
2018-11-06T03:15:15.318Z,57.70
2018-11-06T03:17:44.112Z,57.70
2018-11-06T03:20:13.399Z,57.70
2018-11-06T03:22:43.038Z,57.70
2018-11-06T03:25:12.111Z,57.70
2018-11-06T03:27:41.024Z,57.70
2018-11-06T03:30:11.804Z,57.70
2018-11-06T03:32:40.751Z,57.70
2018-11-06T03:35:10.760Z,57.70
2018-11-06T03:37:39.754Z,57.70
2018-11-06T03:40:09.026Z,57.70
2018-11-06T03:42:37.902Z,57.70
2018-11-06T03:45:07.249Z,57.70
2018-11-06T03:47:36.398Z,57.70
2018-11-06T03:50:05.225Z,57.70
2018-11-06T03:52:34.119Z,57.70
2018-11-06T03:55:03.080Z,57.70
2018-11-06T03:57:31.959Z,57.70
2018-11-06T04:00:00.951Z,57.70
2018-11-06T04:02:29.609Z,57.70
2018-11-06T04:04:58.213Z,57.70
2018-11-06T04:07:27.020Z,57.70
2018-11-06T04:09:55.600Z,57.70
2018-11-06T04:12:24.546Z,57.70
2018-11-06T04:14:53.234Z,57.70
2018-11-06T04:17:21.917Z,57.70
2018-11-06T04:19:50.531Z,57.70
2018-11-06T04:22:19.466Z,57.60
2018-11-06T04:24:48.047Z,57.60
2018-11-06T04:27:16.711Z,57.70
2018-11-06T04:29:46.749Z,57.70
2018-11-06T04:32:15.447Z,57.80
2018-11-06T04:34:44.336Z,57.70
2018-11-06T04:37:13.117Z,57.60
2018-11-06T04:39:41.806Z,57.80
2018-11-06T04:42:10.492Z,57.70
2018-11-06T04:44:39.067Z,57.70
2018-11-06T04:47:07.956Z,57.70
2018-11-06T04:49:37.398Z,57.80
2018-11-06T04:52:06.278Z,57.70
2018-11-06T04:54:34.872Z,57.60
2018-11-06T04:57:03.474Z,57.60
2018-11-06T04:59:32.539Z,57.70
2018-11-06T05:02:01.240Z,57.70
2018-11-06T05:04:30.020Z,57.70
2018-11-06T05:06:59.034Z,57.70
2018-11-06T05:09:28.109Z,57.60
2018-11-06T05:11:56.778Z,57.70
2018-11-06T05:14:25.663Z,57.70
2018-11-06T05:16:54.357Z,57.70
2018-11-06T05:19:23.133Z,57.70
2018-11-06T05:21:52.072Z,57.70
2018-11-06T05:24:20.917Z,57.70
2018-11-06T05:26:49.548Z,57.60
2018-11-06T05:29:18.375Z,57.60
2018-11-06T05:31:47.395Z,57.60
2018-11-06T05:34:16.406Z,58.20
2018-11-06T05:36:45.200Z,57.60
2018-11-06T05:39:13.962Z,57.60
2018-11-06T05:41:42.746Z,57.60
2018-11-06T05:44:11.556Z,57.70
2018-11-06T05:46:40.362Z,57.70
2018-11-06T05:49:08.944Z,57.60
2018-11-06T05:51:37.721Z,57.60
2018-11-06T05:54:06.688Z,57.70
2018-11-06T05:56:35.416Z,57.60
2018-11-06T05:59:04.293Z,57.20
2018-11-06T06:01:33.101Z,57.60
2018-11-06T06:04:02.395Z,57.60
2018-11-06T06:06:31.693Z,57.60
2018-11-06T06:09:00.369Z,57.70
2018-11-06T06:11:29.486Z,57.60
2018-11-06T06:13:58.452Z,57.70
2018-11-06T06:16:27.135Z,57.60
2018-11-06T06:18:55.939Z,57.70
2018-11-06T06:21:24.640Z,57.70
2018-11-06T06:23:53.237Z,57.70
2018-11-06T06:26:21.935Z,57.60
2018-11-06T06:28:50.581Z,57.70
2018-11-06T06:31:19.460Z,57.60
2018-11-06T06:33:48.101Z,57.60
2018-11-06T06:36:16.820Z,57.60
2018-11-06T06:38:45.515Z,57.60
2018-11-06T06:41:14.127Z,57.70
2018-11-06T06:43:43.038Z,57.60
2018-11-06T06:46:12.011Z,57.60
2018-11-06T06:48:40.951Z,57.70
2018-11-06T06:51:09.776Z,57.60
2018-11-06T06:53:38.590Z,57.60
2018-11-06T06:56:07.226Z,57.60
2018-11-06T06:58:36.068Z,57.60
2018-11-06T07:01:05.258Z,57.60
2018-11-06T07:03:33.951Z,57.60
2018-11-06T07:06:02.761Z,57.60
2018-11-06T07:08:31.809Z,57.60
2018-11-06T07:11:00.491Z,57.60
2018-11-06T07:13:29.138Z,57.70
2018-11-06T07:15:57.794Z,57.70
2018-11-06T07:18:26.643Z,57.60
2018-11-06T07:20:55.358Z,57.60
2018-11-06T07:23:24.248Z,57.60
2018-11-06T07:25:53.044Z,57.70
2018-11-06T07:28:21.727Z,57.60
2018-11-06T07:30:50.333Z,57.60
2018-11-06T07:33:19.050Z,58.20
2018-11-06T07:35:48.054Z,57.60
2018-11-06T07:38:16.671Z,57.60
2018-11-06T07:40:45.592Z,57.60
2018-11-06T07:43:15.371Z,57.60
2018-11-06T07:45:44.097Z,57.70
2018-11-06T07:48:13.067Z,57.60
2018-11-06T07:50:41.967Z,57.60
2018-11-06T07:53:10.796Z,57.60
2018-11-06T07:55:39.862Z,57.60
2018-11-06T07:58:08.851Z,57.60
2018-11-06T08:00:37.543Z,57.60
2018-11-06T08:03:06.719Z,57.60
2018-11-06T08:05:35.548Z,57.60
2018-11-06T08:08:04.302Z,57.60
2018-11-06T08:10:33.083Z,57.60
2018-11-06T08:13:01.916Z,57.60
2018-11-06T08:15:30.576Z,57.60
2018-11-06T08:17:59.404Z,57.60
2018-11-06T08:20:28.243Z,57.60
2018-11-06T08:22:57.054Z,57.50
2018-11-06T08:25:25.852Z,57.50
2018-11-06T08:27:54.636Z,57.50
2018-11-06T08:30:23.221Z,57.60
2018-11-06T08:32:52.113Z,57.50
2018-11-06T08:35:20.583Z,57.50
2018-11-06T08:37:49.385Z,57.50
2018-11-06T08:40:18.480Z,57.50
2018-11-06T08:42:47.372Z,57.50
2018-11-06T08:45:16.905Z,57.50
2018-11-06T08:47:45.994Z,57.50
2018-11-06T08:50:16.220Z,57.50
2018-11-06T08:52:44.870Z,57.50
2018-11-06T08:55:14.414Z,57.50
2018-11-06T08:57:43.735Z,57.50
2018-11-06T09:00:14.532Z,57.60
2018-11-06T09:02:44.477Z,57.50
2018-11-06T09:05:14.183Z,57.50
2018-11-06T09:07:43.101Z,57.50
2018-11-06T09:10:12.880Z,57.60
2018-11-06T09:12:41.688Z,57.60
2018-11-06T09:15:12.016Z,57.50
2018-11-06T09:17:40.795Z,57.50
2018-11-06T09:20:10.919Z,57.40
2018-11-06T09:22:39.607Z,57.40
2018-11-06T09:25:09.892Z,57.40
2018-11-06T09:27:39.016Z,57.30
2018-11-06T09:30:10.169Z,57.30
2018-11-06T09:32:38.935Z,57.30
2018-11-06T09:35:08.240Z,57.40
2018-11-06T09:37:37.234Z,57.30
2018-11-06T09:40:07.133Z,57.30
2018-11-06T09:42:36.036Z,57.30
2018-11-06T09:45:04.784Z,57.30
2018-11-06T09:47:33.906Z,57.30
2018-11-06T09:50:02.576Z,57.60
2018-11-06T09:52:31.252Z,57.40
2018-11-06T09:54:59.870Z,57.30
2018-11-06T09:57:28.894Z,57.30
2018-11-06T09:59:57.764Z,57.30
2018-11-06T10:02:26.659Z,57.30
2018-11-06T10:04:55.455Z,57.30
2018-11-06T10:07:24.382Z,57.40
2018-11-06T10:09:52.913Z,57.40
2018-11-06T10:12:21.580Z,57.40
2018-11-06T10:14:50.508Z,57.40
2018-11-06T10:17:19.493Z,57.40
2018-11-06T10:19:48.066Z,57.40
2018-11-06T10:22:16.628Z,57.40
2018-11-06T10:24:45.196Z,57.40
2018-11-06T10:27:13.817Z,57.40
2018-11-06T10:29:42.414Z,57.40
2018-11-06T10:32:11.076Z,57.40
2018-11-06T10:34:39.766Z,57.40
2018-11-06T10:37:08.500Z,57.40
2018-11-06T10:39:37.051Z,57.30
2018-11-06T10:42:05.897Z,57.30
2018-11-06T10:44:34.438Z,57.30
2018-11-06T10:47:03.240Z,57.30
2018-11-06T10:49:32.133Z,57.30
2018-11-06T10:52:00.739Z,57.30
2018-11-06T10:54:29.408Z,57.90
2018-11-06T10:56:58.099Z,57.30
2018-11-06T10:59:26.840Z,57.30
2018-11-06T11:02:01.060Z,57.30
2018-11-06T11:04:30.417Z,57.30
2018-11-06T11:06:59.040Z,57.30
2018-11-06T11:09:27.725Z,57.30
2018-11-06T11:11:56.387Z,57.90
2018-11-06T11:14:25.109Z,57.30
2018-11-06T11:16:53.676Z,57.30
2018-11-06T11:19:22.228Z,57.30
2018-11-06T11:21:50.788Z,57.30
2018-11-06T11:24:19.855Z,57.30
2018-11-06T11:26:48.443Z,57.20
2018-11-06T11:29:17.453Z,57.30
2018-11-06T11:31:46.005Z,57.20
2018-11-06T11:34:14.908Z,57.20
2018-11-06T11:36:43.481Z,57.20
2018-11-06T11:39:12.338Z,57.20
2018-11-06T11:41:40.908Z,57.10
2018-11-06T11:44:09.461Z,57.20
2018-11-06T11:46:38.492Z,57.10
2018-11-06T11:49:07.100Z,57.10
2018-11-06T11:51:35.737Z,57.10
2018-11-06T11:54:04.403Z,57.10
2018-11-06T11:56:32.962Z,57.20
2018-11-06T11:59:01.599Z,57.20
2018-11-06T12:01:30.181Z,57.20
2018-11-06T12:03:58.831Z,57.20
2018-11-06T12:06:27.524Z,57.20
2018-11-06T12:08:56.297Z,57.80
2018-11-06T12:11:25.032Z,57.20
2018-11-06T12:13:53.809Z,57.10
2018-11-06T12:16:22.383Z,57.10
2018-11-06T12:18:51.141Z,57.10
2018-11-06T12:21:19.864Z,57.10
2018-11-06T12:23:48.569Z,57.10
2018-11-06T12:26:17.513Z,57.20
2018-11-06T12:28:46.108Z,57.10
2018-11-06T12:31:14.723Z,57.10
2018-11-06T12:33:43.494Z,57.10
2018-11-06T12:36:12.208Z,57.10
2018-11-06T12:38:41.065Z,57.10
2018-11-06T12:41:09.654Z,57.10
2018-11-06T12:43:38.537Z,57.30
2018-11-06T12:46:07.065Z,57.10
2018-11-06T12:48:35.853Z,57.10
2018-11-06T12:51:04.505Z,57.10
2018-11-06T12:53:33.411Z,57.10
2018-11-06T12:56:02.154Z,57.20
2018-11-06T12:58:30.737Z,57.10
2018-11-06T13:00:59.679Z,57.20
2018-11-06T13:03:28.603Z,57.20
2018-11-06T13:05:57.293Z,57.10
2018-11-06T13:08:25.963Z,57.10
2018-11-06T13:10:54.721Z,57.10
2018-11-06T13:13:23.565Z,57.10
2018-11-06T13:15:52.283Z,57.50
2018-11-06T13:18:20.948Z,57.10
2018-11-06T13:20:49.694Z,57.10
2018-11-06T13:23:18.484Z,57.10
2018-11-06T13:25:47.162Z,57.10
2018-11-06T13:28:15.740Z,57.10
2018-11-06T13:30:44.645Z,57.10
2018-11-06T13:33:13.523Z,57.10
2018-11-06T13:35:42.218Z,57.10
2018-11-06T13:38:11.009Z,57.10
2018-11-06T13:40:39.687Z,57.10
2018-11-06T13:43:09.706Z,57.10
2018-11-06T13:45:38.552Z,57.10
2018-11-06T13:48:07.092Z,57.10
2018-11-06T13:50:35.817Z,57.10
2018-11-06T13:53:04.347Z,57.10
2018-11-06T13:55:33.053Z,57.10
2018-11-06T13:58:01.658Z,57.70
2018-11-06T14:00:30.423Z,57.10
2018-11-06T14:02:59.013Z,57.10
2018-11-06T14:05:27.590Z,57.10
2018-11-06T14:07:56.158Z,57.10
2018-11-06T14:10:24.887Z,57.20
2018-11-06T14:12:55.935Z,57.50
2018-11-06T14:15:24.747Z,57.20
2018-11-06T14:17:53.702Z,57.20
2018-11-06T14:20:22.472Z,57.20
2018-11-06T14:22:51.762Z,57.20
2018-11-06T14:25:39.209Z,57.20
2018-11-06T14:28:11.069Z,57.50
2018-11-06T14:30:41.337Z,57.20
2018-11-06T14:33:09.875Z,57.20
2018-11-06T14:35:38.517Z,57.30
2018-11-06T14:38:07.059Z,57.30
2018-11-06T14:40:35.546Z,57.30
2018-11-06T14:43:04.092Z,57.30
2018-11-06T14:45:32.680Z,57.30
2018-11-06T14:48:01.515Z,57.40
2018-11-06T14:50:30.155Z,57.90
2018-11-06T14:52:58.697Z,57.30
2018-11-06T14:55:27.306Z,57.30
2018-11-06T14:57:55.964Z,57.20
2018-11-06T15:00:24.681Z,57.30
2018-11-06T15:02:53.727Z,57.20
2018-11-06T15:05:23.157Z,57.40
2018-11-06T15:07:51.704Z,57.30
2018-11-06T15:10:21.075Z,57.30
2018-11-06T15:12:49.765Z,57.30
2018-11-06T15:15:19.932Z,57.30
2018-11-06T15:17:49.320Z,57.30
2018-11-06T15:20:20.577Z,57.30
2018-11-06T15:22:49.088Z,57.40
2018-11-06T15:25:18.486Z,57.40
2018-11-06T15:27:47.242Z,57.40
2018-11-06T15:30:17.330Z,57.40
2018-11-06T15:32:46.298Z,57.40
2018-11-06T15:35:16.353Z,57.40
2018-11-06T15:37:45.956Z,57.40
2018-11-06T15:40:16.215Z,57.50
2018-11-06T15:42:45.380Z,57.50
2018-11-06T15:45:15.255Z,57.50
2018-11-06T15:47:44.954Z,57.50
2018-11-06T15:50:14.767Z,57.50
2018-11-06T15:52:44.463Z,57.50
2018-11-06T15:55:13.454Z,57.50
2018-11-06T15:57:42.145Z,57.50
2018-11-06T16:00:14.604Z,57.40
2018-11-06T16:02:43.861Z,57.50
2018-11-06T16:05:12.956Z,57.50
2018-11-06T16:07:41.893Z,57.50
2018-11-06T16:10:13.903Z,57.50
2018-11-06T16:12:43.383Z,57.50
2018-11-06T16:15:12.300Z,57.50
2018-11-06T16:17:41.905Z,57.50
2018-11-06T16:20:15.049Z,57.50
2018-11-06T16:22:44.163Z,57.50
2018-11-06T16:25:14.105Z,57.60
2018-11-06T16:27:43.274Z,57.50
2018-11-06T16:30:16.978Z,57.50
2018-11-06T16:32:45.805Z,57.60
2018-11-06T16:35:19.658Z,57.60
2018-11-06T16:37:48.666Z,57.60
2018-11-06T16:40:17.840Z,57.60
2018-11-06T16:42:47.330Z,57.60
2018-11-06T16:45:18.636Z,58.20
2018-11-06T16:47:48.173Z,57.60
2018-11-06T16:50:17.572Z,57.60
2018-11-06T16:52:46.555Z,57.70
2018-11-06T16:55:15.654Z,57.60
2018-11-06T16:57:45.143Z,57.60
2018-11-06T17:00:15.736Z,57.60
2018-11-06T17:02:44.455Z,57.60
2018-11-06T17:05:15.984Z,57.60
2018-11-06T17:07:45.035Z,58.20
2018-11-06T17:10:14.945Z,58.40
2018-11-06T17:12:43.570Z,57.60
2018-11-06T17:15:14.696Z,57.60
2018-11-06T17:17:44.003Z,57.70
2018-11-06T17:20:13.255Z,57.70
2018-11-06T17:22:42.020Z,57.70
2018-11-06T17:25:12.425Z,57.70
2018-11-06T17:27:41.325Z,57.70
2018-11-06T17:30:16.571Z,57.70
2018-11-06T17:32:46.718Z,57.70
2018-11-06T17:35:17.378Z,57.70
2018-11-06T17:37:46.599Z,57.70
2018-11-06T17:40:18.940Z,57.70
2018-11-06T17:42:47.917Z,57.70
2018-11-06T17:45:18.420Z,57.70
2018-11-06T17:47:47.358Z,57.70
2018-11-06T17:50:16.657Z,57.70
2018-11-06T17:52:45.654Z,57.70
2018-11-06T17:55:16.775Z,57.70
2018-11-06T17:57:46.526Z,57.70
2018-11-06T18:00:21.136Z,57.70
2018-11-06T18:02:49.974Z,57.70
2018-11-06T18:05:19.863Z,57.70
2018-11-06T18:07:48.594Z,57.70
2018-11-06T18:10:18.481Z,57.70
2018-11-06T18:12:48.520Z,58.50
2018-11-06T18:15:17.595Z,57.70
2018-11-06T18:17:46.768Z,57.80
2018-11-06T18:20:15.958Z,57.70
2018-11-06T18:22:46.303Z,57.70
2018-11-06T18:25:16.041Z,58.30
2018-11-06T18:27:45.219Z,57.70
2018-11-06T18:30:16.023Z,57.70
2018-11-06T18:32:44.801Z,57.70
2018-11-06T18:35:14.848Z,57.40
2018-11-06T18:37:43.725Z,57.70
2018-11-06T18:40:15.323Z,57.80
2018-11-06T18:42:45.125Z,57.70
2018-11-06T18:45:14.938Z,57.70
2018-11-06T18:47:43.832Z,57.70
2018-11-06T18:50:13.728Z,57.80
2018-11-06T18:52:44.001Z,57.80
2018-11-06T18:55:12.713Z,57.70
2018-11-06T18:57:41.736Z,58.30
2018-11-06T19:00:17.892Z,57.70
2018-11-06T19:02:47.767Z,57.80
2018-11-06T19:05:17.233Z,57.80
2018-11-06T19:07:46.339Z,57.90
2018-11-06T19:10:16.067Z,57.80
2018-11-06T19:12:45.034Z,57.80
2018-11-06T19:15:15.030Z,57.80
2018-11-06T19:17:45.008Z,57.80
2018-11-06T19:20:14.255Z,57.70
2018-11-06T19:22:43.274Z,57.80
2018-11-06T19:25:13.108Z,57.70
2018-11-06T19:27:41.852Z,57.80
2018-11-06T19:30:13.561Z,57.70
2018-11-06T19:32:42.280Z,57.80
2018-11-06T19:35:11.054Z,57.80
2018-11-06T19:37:40.375Z,57.80
2018-11-06T19:40:10.633Z,57.80
2018-11-06T19:42:40.122Z,57.80
2018-11-06T19:45:09.629Z,57.80
2018-11-06T19:47:38.488Z,57.80
2018-11-06T19:50:11.251Z,57.80
2018-11-06T19:52:40.313Z,57.80
2018-11-06T19:55:10.326Z,57.80
2018-11-06T19:57:39.069Z,57.80
2018-11-06T20:00:15.153Z,57.80
2018-11-06T20:02:44.973Z,57.80
2018-11-06T20:05:13.871Z,57.80
2018-11-06T20:07:43.765Z,57.80
2018-11-06T20:10:14.910Z,57.80
2018-11-06T20:12:44.619Z,57.80
2018-11-06T20:15:14.234Z,57.80
2018-11-06T20:17:43.338Z,57.80
2018-11-06T20:20:16.565Z,57.80
2018-11-06T20:22:45.614Z,57.80
2018-11-06T20:25:14.460Z,57.80
2018-11-06T20:27:43.351Z,57.80
2018-11-06T20:30:15.427Z,57.80
2018-11-06T20:32:44.292Z,57.80
2018-11-06T20:35:13.187Z,57.80
2018-11-06T20:37:41.967Z,57.80
2018-11-06T20:40:12.803Z,57.80
2018-11-06T20:42:42.036Z,57.80
2018-11-06T20:45:13.848Z,57.80
2018-11-06T20:47:42.880Z,58.00
2018-11-06T20:50:14.237Z,57.80
2018-11-06T20:52:43.379Z,57.80
2018-11-06T20:55:12.853Z,57.90
2018-11-06T20:57:41.502Z,57.80
2018-11-06T21:00:17.020Z,57.80
2018-11-06T21:02:45.877Z,57.80
2018-11-06T21:05:15.435Z,57.80
2018-11-06T21:07:44.667Z,58.40
2018-11-06T21:10:13.830Z,57.80
2018-11-06T21:12:42.432Z,57.80
2018-11-06T21:15:11.734Z,57.80
2018-11-06T21:17:40.598Z,57.80
2018-11-06T21:20:10.392Z,57.80
2018-11-06T21:22:39.292Z,57.80
2018-11-06T21:25:10.556Z,57.80
2018-11-06T21:27:39.981Z,57.80
2018-11-06T21:30:10.258Z,57.80
2018-11-06T21:32:39.810Z,57.80
2018-11-06T21:35:08.657Z,57.80
2018-11-06T21:37:38.006Z,57.80
2018-11-06T21:40:10.167Z,57.80
2018-11-06T21:42:39.672Z,57.80
2018-11-06T21:45:09.438Z,57.80
2018-11-06T21:47:43.726Z,57.80
2018-11-06T21:50:13.334Z,57.80
2018-11-06T21:52:42.129Z,57.80
2018-11-06T21:55:12.226Z,57.80
2018-11-06T21:57:40.968Z,57.80
2018-11-06T22:00:12.271Z,57.70
2018-11-06T22:02:40.989Z,57.80
2018-11-06T22:05:11.466Z,57.80
2018-11-06T22:07:40.760Z,57.80
2018-11-06T22:10:11.733Z,57.80
2018-11-06T22:12:41.200Z,57.80
2018-11-06T22:15:11.256Z,57.80
2018-11-06T22:17:40.527Z,57.80
2018-11-06T22:20:11.363Z,57.80
2018-11-06T22:22:40.793Z,57.80
2018-11-06T22:25:09.781Z,57.80
2018-11-06T22:27:38.454Z,57.80
2018-11-06T22:30:08.801Z,57.80
2018-11-06T22:32:37.399Z,57.80
2018-11-06T22:35:07.500Z,57.80
2018-11-06T22:37:36.247Z,57.80
2018-11-06T22:40:05.160Z,57.80
2018-11-06T22:42:33.732Z,57.80
2018-11-06T22:45:03.230Z,57.80
2018-11-06T22:47:31.946Z,57.80
2018-11-06T22:50:01.045Z,57.80
2018-11-06T22:52:29.678Z,57.80
2018-11-06T22:54:58.414Z,57.80
2018-11-06T22:57:28.033Z,57.50
2018-11-06T22:59:56.794Z,57.80
2018-11-06T23:02:26.301Z,57.80
2018-11-06T23:04:56.868Z,57.80
2018-11-06T23:07:30.757Z,57.80
2018-11-06T23:10:00.535Z,57.80
2018-11-06T23:12:29.662Z,57.80
2018-11-06T23:14:58.449Z,57.80
2018-11-06T23:17:27.098Z,57.80
2018-11-06T23:19:56.072Z,57.80
2018-11-06T23:22:24.810Z,57.80
2018-11-06T23:24:53.642Z,57.80
2018-11-06T23:27:22.576Z,57.80
2018-11-06T23:29:51.455Z,57.80
2018-11-06T23:32:21.311Z,57.80
2018-11-06T23:34:50.124Z,57.80
2018-11-06T23:37:19.022Z,57.80
2018-11-06T23:39:47.970Z,57.80
2018-11-06T23:42:16.710Z,57.80
2018-11-06T23:44:45.839Z,57.80
2018-11-06T23:47:14.768Z,57.80
2018-11-06T23:49:43.520Z,57.80
2018-11-06T23:52:12.211Z,57.80
2018-11-06T23:54:41.019Z,57.80
2018-11-06T23:57:09.873Z,57.80
2018-11-06T23:59:38.825Z,57.80
